Haubstadt, Indiana
Current Conditions -  °F | °C
As of 8:54 AM on Thursday 23 Oct 2014 (Local Time) from KEVV Reporting Station
Clear Clear  
Wind Chill: 44°   Ceiling: Unl
Heat Index: 46°   Visibility: NA
Dew Point: 43°   Wind: 5mph
Humidity: 89%   Direction: 100°E
Pressure: 30.26"   Gusts: NA
Location:  38.21°N, 87.57°W
Report Text: KEVV 231354Z 10004KT CLR 08/06 A3026 RMK AO2 SLP246 T00780061 $
Loading
Personal Weather Stations






























Interactive Weather Map
Tropical Storm Tracking
New forecast layout! Learn more

10-Day Weather Forecast

Advertisements
Track Severe Weather on mobile